Archival Weather

Central Park

Central Park, New York (KNYC)

Report from: Thursday, September 21, 2023 5:51 PM EDT
Current time: Sunday, February 25, 2024 5:46 PM EST

Current weather – Weather history – Daily summaries
Weather forecast

Temperature21.1°C (70.0°F)
Dew point10.0°C (50.0°F)
Winds 4 kts (2.1 m/s, 4.6 mph) North (10°)
Visibility10 mi. (16.1 km)
Clouds Sky clear
Altimeter30.28 in.Hg (1025 mB)
Relative humidity49 %
Density altitude510 ft. (155 m)
Sea-level pressure102.5 kPa (1025 mB, 30.25 in.Hg)
Remarks Fully automated report
System requires maintenance
Automated weather observing station with precipitation discriminator
Flight conditions Visual Meteorological Conditions
Raw dataKNYC 212151Z AUTO 01004KT 10SM CLR 21/10 A3028 RMK AO2 SLP245 T02110100 $
An error has occurred. This application may no longer respond until reloaded. Reload 🗙